Terminal Aerodrome Forecast
Issued by NWS

Home | Current Version | Previous Version | Text Only | Print | Product List | Glossary On
Versions: 1 2 3 4 5 6 7 8 9 10 11 12 13 14 15 16 17 18 19 20 21 22 23 24 25 26 27 28
000
FTUS42 KFFC 222339 AAA
TAFRYY
TAF AMD
KRYY 222339Z 2300/2324 22015G30KT 4SM SHRA OVC012
     FM230100 25010G20KT P6SM SCT008 BKN015
     FM230300 26012G25KT 5SM -RA BR BKN009
     FM231100 30015G25KT P6SM BKN009
     FM231500 31020G30KT P6SM BKN015
     FM232000 31015G25KT P6SM SCT015 BKN035
      AMD NOT SKED 2304/2312=

USA.gov is the U.S. government's official web portal to all federal, state and local government web resources and services.